TAM3806 SBBR-SBCG
Flight info
| Callsign | TAM3806 |
|---|---|
| Flight time | 1h 16m |
| Altitude | 30000 |
| Route | DCT SIREM UM544 VUROB DCT |
| Aircraft | A20N/M-SDE2E3FGHIRWXY/LB1 |
Departure
| Time | 2026-05-04 19:23 |
|---|---|
| Airport | Presidente Juscelino Kubitschek International Airport (SBBR) |
Arrival
| Time | 2026-05-04 20:39 |
|---|---|
| Airport | Campo Grande Airport (SBCG) |
| Time | Latitude | Longitude | Altitude | Speed | Heading |
|---|---|---|---|---|---|
| 2026-05-04 19:08 | -15.86706 | -47.91853 | 3465 ft | 0 kts | 215° |
| 2026-05-04 19:15 | -15.86694 | -47.91846 | 3464 ft | 2 kts | 198° |
| 2026-05-04 19:15 | -15.86680 | -47.91843 | 3464 ft | 2 kts | 182° |
| 2026-05-04 19:16 | -15.86665 | -47.91843 | 3464 ft | 2 kts | 176° |
| 2026-05-04 19:16 | -15.86650 | -47.91844 | 3465 ft | 2 kts | 176° |
| 2026-05-04 19:16 | -15.86635 | -47.91845 | 3465 ft | 2 kts | 184° |
| 2026-05-04 19:16 | -15.86621 | -47.91842 | 3466 ft | 2 kts | 218° |
| 2026-05-04 19:17 | -15.86612 | -47.91829 | 3465 ft | 2 kts | 267° |
| 2026-05-04 19:17 | -15.86612 | -47.91824 | 3463 ft | 0 kts | 268° |
| 2026-05-04 19:18 | -15.86613 | -47.91834 | 3465 ft | 3 kts | 264° |
| 2026-05-04 19:18 | -15.86616 | -47.91868 | 3466 ft | 6 kts | 264° |
| 2026-05-04 19:18 | -15.86621 | -47.91925 | 3465 ft | 10 kts | 264° |
| 2026-05-04 19:19 | -15.86626 | -47.92005 | 3465 ft | 13 kts | 267° |
| 2026-05-04 19:19 | -15.86632 | -47.92109 | 3464 ft | 16 kts | 266° |
| 2026-05-04 19:19 | -15.86609 | -47.92229 | 3461 ft | 18 kts | 296° |
| 2026-05-04 19:19 | -15.86540 | -47.92350 | 3462 ft | 21 kts | 292° |
| 2026-05-04 19:20 | -15.86535 | -47.92504 | 3460 ft | 23 kts | 266° |
| 2026-05-04 19:20 | -15.86546 | -47.92658 | 3458 ft | 16 kts | 266° |
| 2026-05-04 19:20 | -15.86539 | -47.92749 | 3457 ft | 12 kts | 312° |
| 2026-05-04 19:20 | -15.86477 | -47.92769 | 3459 ft | 0 kts | 357° |
| 2026-05-04 19:21 | -15.86476 | -47.92769 | 3459 ft | 1 kts | 357° |
| 2026-05-04 19:21 | -15.86461 | -47.92769 | 3458 ft | 4 kts | 358° |
| 2026-05-04 19:21 | -15.86426 | -47.92768 | 3458 ft | 6 kts | 12° |
| 2026-05-04 19:21 | -15.86389 | -47.92738 | 3458 ft | 7 kts | 40° |
| 2026-05-04 19:22 | -15.86355 | -47.92700 | 3458 ft | 6 kts | 83° |
| 2026-05-04 19:22 | -15.86353 | -47.92685 | 3458 ft | 16 kts | 83° |
| 2026-05-04 19:22 | -15.86329 | -47.92285 | 3465 ft | 95 kts | 86° |
| 2026-05-04 19:22 | -15.86271 | -47.91356 | 3496 ft | 157 kts | 87° |
| 2026-05-04 19:23 | -15.86191 | -47.90163 | 4149 ft | 170 kts | 85° |
| 2026-05-04 19:23 | -15.86106 | -47.88949 | 5122 ft | 169 kts | 85° |
| 2026-05-04 19:23 | -15.86014 | -47.87701 | 5857 ft | 180 kts | 86° |
| 2026-05-04 19:23 | -15.85922 | -47.86312 | 6251 ft | 204 kts | 86° |
| 2026-05-04 19:24 | -15.85811 | -47.84705 | 6498 ft | 242 kts | 85° |
| 2026-05-04 19:24 | -15.85682 | -47.82870 | 6847 ft | 266 kts | 86° |
| 2026-05-04 19:24 | -15.85646 | -47.80919 | 7505 ft | 274 kts | 98° |
| 2026-05-04 19:24 | -15.86281 | -47.79040 | 8289 ft | 281 kts | 122° |
| 2026-05-04 19:25 | -15.87662 | -47.77582 | 9052 ft | 289 kts | 147° |
| 2026-05-04 19:25 | -15.89568 | -47.76861 | 9821 ft | 296 kts | 173° |
| 2026-05-04 19:25 | -15.91628 | -47.77047 | 10506 ft | 304 kts | 197° |
| 2026-05-04 19:25 | -15.93535 | -47.78092 | 10759 ft | 326 kts | 220° |
| 2026-05-04 19:26 | -15.95012 | -47.79970 | 11006 ft | 346 kts | 244° |
| 2026-05-04 19:26 | -15.95837 | -47.82347 | 11601 ft | 353 kts | 254° |
| 2026-05-04 19:26 | -15.96645 | -47.84779 | 12294 ft | 357 kts | 248° |
| 2026-05-04 19:26 | -15.97747 | -47.87115 | 12976 ft | 362 kts | 240° |
| 2026-05-04 19:27 | -15.99101 | -47.89341 | 13628 ft | 367 kts | 236° |
| 2026-05-04 19:27 | -16.00597 | -47.91484 | 14225 ft | 372 kts | 233° |
| 2026-05-04 19:27 | -16.02180 | -47.93619 | 14872 ft | 372 kts | 232° |
| 2026-05-04 19:27 | -16.03792 | -47.95757 | 15496 ft | 374 kts | 232° |
| 2026-05-04 19:28 | -16.05386 | -47.97868 | 16081 ft | 377 kts | 232° |
| 2026-05-04 19:28 | -16.07005 | -48.00021 | 16694 ft | 379 kts | 232° |
| 2026-05-04 19:28 | -16.08630 | -48.02190 | 17280 ft | 381 kts | 232° |
| 2026-05-04 19:28 | -16.10267 | -48.04381 | 17855 ft | 384 kts | 232° |
| 2026-05-04 19:29 | -16.11906 | -48.06577 | 18423 ft | 386 kts | 232° |
| 2026-05-04 19:29 | -16.13560 | -48.08795 | 18937 ft | 388 kts | 232° |
| 2026-05-04 19:29 | -16.15204 | -48.11001 | 19430 ft | 390 kts | 232° |
| 2026-05-04 19:29 | -16.16866 | -48.13231 | 19943 ft | 391 kts | 232° |
| 2026-05-04 19:30 | -16.18537 | -48.15474 | 20435 ft | 394 kts | 232° |
| 2026-05-04 19:30 | -16.20227 | -48.17745 | 20927 ft | 397 kts | 232° |
| 2026-05-04 19:30 | -16.21923 | -48.20021 | 21417 ft | 399 kts | 232° |
| 2026-05-04 19:30 | -16.23632 | -48.22318 | 21900 ft | 402 kts | 232° |
| 2026-05-04 19:31 | -16.25351 | -48.24628 | 22362 ft | 405 kts | 232° |
| 2026-05-04 19:31 | -16.27085 | -48.26960 | 22857 ft | 408 kts | 232° |
| 2026-05-04 19:31 | -16.28807 | -48.29277 | 23321 ft | 410 kts | 232° |
| 2026-05-04 19:31 | -16.30560 | -48.31634 | 23764 ft | 413 kts | 232° |
| 2026-05-04 19:32 | -16.32323 | -48.34007 | 24198 ft | 414 kts | 232° |
| 2026-05-04 19:32 | -16.34090 | -48.36385 | 24652 ft | 415 kts | 232° |
| 2026-05-04 19:32 | -16.35862 | -48.38772 | 25089 ft | 416 kts | 232° |
| 2026-05-04 19:32 | -16.37619 | -48.41138 | 25503 ft | 417 kts | 232° |
| 2026-05-04 19:33 | -16.39395 | -48.43532 | 25897 ft | 419 kts | 232° |
| 2026-05-04 19:33 | -16.41191 | -48.45953 | 26300 ft | 420 kts | 232° |
| 2026-05-04 19:33 | -16.42983 | -48.48369 | 26735 ft | 421 kts | 232° |
| 2026-05-04 19:33 | -16.44762 | -48.50769 | 27105 ft | 423 kts | 233° |
| 2026-05-04 19:34 | -16.46570 | -48.53209 | 27484 ft | 424 kts | 233° |
| 2026-05-04 19:34 | -16.48378 | -48.55649 | 27863 ft | 426 kts | 233° |
| 2026-05-04 19:34 | -16.50192 | -48.58100 | 28232 ft | 427 kts | 233° |
| 2026-05-04 19:34 | -16.51993 | -48.60533 | 28579 ft | 429 kts | 233° |
| 2026-05-04 19:35 | -16.53776 | -48.63035 | 28951 ft | 430 kts | 237° |
| 2026-05-04 19:35 | -16.55316 | -48.65712 | 29295 ft | 431 kts | 243° |
| 2026-05-04 19:35 | -16.56580 | -48.68551 | 29642 ft | 432 kts | 248° |
| 2026-05-04 19:35 | -16.57713 | -48.71464 | 29951 ft | 434 kts | 248° |
| 2026-05-04 19:36 | -16.58853 | -48.74359 | 30037 ft | 434 kts | 248° |
| 2026-05-04 19:36 | -16.61159 | -48.80194 | 30033 ft | 434 kts | 248° |
| 2026-05-04 19:37 | -16.63442 | -48.85983 | 30036 ft | 434 kts | 248° |
| 2026-05-04 19:37 | -16.65728 | -48.91794 | 30047 ft | 435 kts | 248° |
| 2026-05-04 19:38 | -16.68075 | -48.97765 | 30061 ft | 452 kts | 248° |
| 2026-05-04 19:38 | -16.70479 | -49.03885 | 30072 ft | 460 kts | 248° |
| 2026-05-04 19:39 | -16.72906 | -49.10073 | 30082 ft | 460 kts | 248° |
| 2026-05-04 19:39 | -16.75316 | -49.16221 | 30087 ft | 459 kts | 248° |
| 2026-05-04 19:40 | -16.77749 | -49.22437 | 30088 ft | 460 kts | 248° |
| 2026-05-04 19:40 | -16.80152 | -49.28581 | 30075 ft | 459 kts | 248° |
| 2026-05-04 19:41 | -16.82558 | -49.34740 | 30054 ft | 459 kts | 248° |
| 2026-05-04 19:41 | -16.84974 | -49.40930 | 30033 ft | 459 kts | 248° |
| 2026-05-04 19:42 | -16.87389 | -49.47123 | 30004 ft | 459 kts | 248° |
| 2026-05-04 19:42 | -16.89783 | -49.53271 | 29999 ft | 459 kts | 248° |
| 2026-05-04 19:43 | -16.92193 | -49.59444 | 30001 ft | 459 kts | 246° |
| 2026-05-04 19:43 | -16.95304 | -49.65265 | 29993 ft | 459 kts | 236° |
| 2026-05-04 19:44 | -16.99165 | -49.70537 | 29991 ft | 460 kts | 233° |
| 2026-05-04 19:44 | -17.03066 | -49.75839 | 29993 ft | 460 kts | 233° |
| 2026-05-04 19:45 | -17.06931 | -49.81143 | 30026 ft | 459 kts | 234° |
| 2026-05-04 19:45 | -17.10785 | -49.86494 | 30050 ft | 459 kts | 234° |
| 2026-05-04 19:46 | -17.14608 | -49.91796 | 30071 ft | 459 kts | 234° |
| 2026-05-04 19:46 | -17.17815 | -49.96242 | 30090 ft | 459 kts | 234° |
| 2026-05-04 19:47 | -17.21668 | -50.01585 | 30094 ft | 459 kts | 234° |
| 2026-05-04 19:47 | -17.25504 | -50.06908 | 30088 ft | 459 kts | 234° |
| 2026-05-04 19:48 | -17.29334 | -50.12228 | 30078 ft | 459 kts | 234° |
| 2026-05-04 19:48 | -17.33164 | -50.17552 | 30046 ft | 459 kts | 234° |
| 2026-05-04 19:49 | -17.37006 | -50.22897 | 30024 ft | 459 kts | 234° |
| 2026-05-04 19:49 | -17.40849 | -50.28248 | 29990 ft | 458 kts | 234° |
| 2026-05-04 19:50 | -17.44668 | -50.33568 | 29983 ft | 459 kts | 234° |
| 2026-05-04 19:50 | -17.48508 | -50.38886 | 29989 ft | 459 kts | 234° |
| 2026-05-04 19:51 | -17.52370 | -50.44227 | 29991 ft | 459 kts | 234° |
| 2026-05-04 19:51 | -17.56221 | -50.49563 | 29989 ft | 458 kts | 234° |
| 2026-05-04 19:52 | -17.60060 | -50.54888 | 29985 ft | 459 kts | 234° |
| 2026-05-04 19:52 | -17.63904 | -50.60226 | 29990 ft | 458 kts | 234° |
| 2026-05-04 19:53 | -17.67716 | -50.65535 | 29992 ft | 458 kts | 234° |
| 2026-05-04 19:53 | -17.71559 | -50.70893 | 29996 ft | 458 kts | 234° |
| 2026-05-04 19:54 | -17.75397 | -50.76246 | 29997 ft | 458 kts | 234° |
| 2026-05-04 19:54 | -17.79214 | -50.81575 | 29996 ft | 458 kts | 234° |
| 2026-05-04 19:55 | -17.83030 | -50.86906 | 30001 ft | 458 kts | 234° |
| 2026-05-04 19:55 | -17.86860 | -50.92261 | 30004 ft | 458 kts | 234° |
| 2026-05-04 19:56 | -17.90687 | -50.97616 | 30008 ft | 458 kts | 234° |
| 2026-05-04 19:56 | -17.94491 | -51.02945 | 30003 ft | 458 kts | 234° |
| 2026-05-04 19:57 | -17.98299 | -51.08285 | 30002 ft | 458 kts | 234° |
| 2026-05-04 19:57 | -18.02116 | -51.13641 | 29999 ft | 457 kts | 234° |
| 2026-05-04 19:58 | -18.05944 | -51.19016 | 30000 ft | 457 kts | 234° |
| 2026-05-04 19:58 | -18.09744 | -51.24356 | 29995 ft | 457 kts | 234° |
| 2026-05-04 19:59 | -18.13545 | -51.29702 | 29994 ft | 457 kts | 234° |
| 2026-05-04 19:59 | -18.17350 | -51.35058 | 29991 ft | 457 kts | 234° |
| 2026-05-04 20:00 | -18.21159 | -51.40426 | 29993 ft | 457 kts | 234° |
| 2026-05-04 20:00 | -18.24947 | -51.45768 | 29986 ft | 457 kts | 234° |
| 2026-05-04 20:01 | -18.28743 | -51.51124 | 29990 ft | 457 kts | 234° |
| 2026-05-04 20:01 | -18.32543 | -51.56490 | 29988 ft | 457 kts | 234° |
| 2026-05-04 20:02 | -18.36335 | -51.61854 | 29982 ft | 456 kts | 234° |
| 2026-05-04 20:02 | -18.40114 | -51.67215 | 29982 ft | 457 kts | 234° |
| 2026-05-04 20:03 | -18.43911 | -51.72606 | 29984 ft | 457 kts | 234° |
| 2026-05-04 20:03 | -18.47680 | -51.77953 | 29986 ft | 457 kts | 234° |
| 2026-05-04 20:04 | -18.51481 | -51.83338 | 29982 ft | 457 kts | 234° |
| 2026-05-04 20:04 | -18.55275 | -51.88719 | 29984 ft | 457 kts | 234° |
| 2026-05-04 20:05 | -18.59054 | -51.94085 | 29978 ft | 458 kts | 234° |
| 2026-05-04 20:05 | -18.62833 | -51.99456 | 29981 ft | 458 kts | 234° |
| 2026-05-04 20:06 | -18.66638 | -52.04867 | 29988 ft | 458 kts | 234° |
| 2026-05-04 20:06 | -18.70436 | -52.10273 | 29986 ft | 458 kts | 234° |
| 2026-05-04 20:07 | -18.74230 | -52.15678 | 29985 ft | 458 kts | 234° |
| 2026-05-04 20:07 | -18.78004 | -52.21061 | 29983 ft | 458 kts | 234° |
| 2026-05-04 20:08 | -18.81791 | -52.26466 | 29986 ft | 458 kts | 234° |
| 2026-05-04 20:08 | -18.85581 | -52.31879 | 29986 ft | 458 kts | 234° |
| 2026-05-04 20:09 | -18.89346 | -52.37261 | 29985 ft | 458 kts | 234° |
| 2026-05-04 20:09 | -18.93134 | -52.42684 | 29984 ft | 458 kts | 234° |
| 2026-05-04 20:10 | -18.96917 | -52.48111 | 29986 ft | 457 kts | 234° |
| 2026-05-04 20:10 | -19.00680 | -52.53514 | 29989 ft | 458 kts | 234° |
| 2026-05-04 20:11 | -19.04456 | -52.58940 | 29986 ft | 457 kts | 234° |
| 2026-05-04 20:11 | -19.08207 | -52.64334 | 29975 ft | 457 kts | 234° |
| 2026-05-04 20:12 | -19.11980 | -52.69761 | 29979 ft | 457 kts | 234° |
| 2026-05-04 20:12 | -19.15748 | -52.75183 | 29977 ft | 457 kts | 234° |
| 2026-05-04 20:13 | -19.19492 | -52.80577 | 29978 ft | 457 kts | 234° |
| 2026-05-04 20:13 | -19.23264 | -52.86016 | 29978 ft | 456 kts | 234° |
| 2026-05-04 20:14 | -19.26997 | -52.91404 | 29979 ft | 457 kts | 234° |
| 2026-05-04 20:14 | -19.30752 | -52.96828 | 29981 ft | 456 kts | 234° |
| 2026-05-04 20:15 | -19.34493 | -53.02237 | 29975 ft | 456 kts | 234° |
| 2026-05-04 20:15 | -19.38245 | -53.07668 | 29980 ft | 456 kts | 234° |
| 2026-05-04 20:16 | -19.41975 | -53.13070 | 29979 ft | 456 kts | 234° |
| 2026-05-04 20:16 | -19.45721 | -53.18500 | 29977 ft | 456 kts | 234° |
| 2026-05-04 20:17 | -19.49465 | -53.23933 | 29975 ft | 456 kts | 234° |
| 2026-05-04 20:17 | -19.53198 | -53.29355 | 29976 ft | 455 kts | 234° |
| 2026-05-04 20:18 | -19.56938 | -53.34792 | 29974 ft | 456 kts | 234° |
| 2026-05-04 20:18 | -19.60676 | -53.40229 | 29971 ft | 455 kts | 234° |
| 2026-05-04 20:19 | -19.64387 | -53.45633 | 29975 ft | 455 kts | 234° |
| 2026-05-04 20:19 | -19.68123 | -53.51078 | 29974 ft | 455 kts | 235° |
| 2026-05-04 20:20 | -19.71835 | -53.56494 | 29978 ft | 456 kts | 235° |
| 2026-05-04 20:20 | -19.75563 | -53.61937 | 29980 ft | 455 kts | 235° |
| 2026-05-04 20:21 | -19.79297 | -53.67395 | 29982 ft | 456 kts | 235° |
| 2026-05-04 20:21 | -19.84869 | -53.75547 | 29979 ft | 456 kts | 235° |
| 2026-05-04 20:22 | -19.88601 | -53.81015 | 29954 ft | 454 kts | 235° |
| 2026-05-04 20:22 | -19.90429 | -53.83694 | 29615 ft | 451 kts | 235° |
| 2026-05-04 20:22 | -19.92276 | -53.86402 | 28981 ft | 448 kts | 235° |
| 2026-05-04 20:23 | -19.94101 | -53.89080 | 28208 ft | 447 kts | 235° |
| 2026-05-04 20:23 | -19.95923 | -53.91755 | 27427 ft | 445 kts | 234° |
| 2026-05-04 20:23 | -19.97707 | -53.94374 | 26711 ft | 441 kts | 234° |
| 2026-05-04 20:23 | -19.99501 | -53.97011 | 26010 ft | 438 kts | 234° |
| 2026-05-04 20:24 | -20.01285 | -53.99632 | 25311 ft | 435 kts | 234° |
| 2026-05-04 20:24 | -20.03056 | -54.02237 | 24625 ft | 432 kts | 234° |
| 2026-05-04 20:24 | -20.04811 | -54.04818 | 23973 ft | 429 kts | 234° |
| 2026-05-04 20:24 | -20.06541 | -54.07364 | 23280 ft | 427 kts | 234° |
| 2026-05-04 20:25 | -20.08344 | -54.09867 | 22589 ft | 423 kts | 230° |
| 2026-05-04 20:25 | -20.10333 | -54.12163 | 21908 ft | 420 kts | 227° |
| 2026-05-04 20:25 | -20.12323 | -54.14430 | 21243 ft | 416 kts | 228° |
| 2026-05-04 20:25 | -20.14291 | -54.16681 | 20569 ft | 414 kts | 228° |
| 2026-05-04 20:26 | -20.16242 | -54.18916 | 19922 ft | 410 kts | 228° |
| 2026-05-04 20:26 | -20.18165 | -54.21120 | 19281 ft | 408 kts | 228° |
| 2026-05-04 20:26 | -20.20087 | -54.23324 | 18671 ft | 405 kts | 228° |
| 2026-05-04 20:26 | -20.22003 | -54.25522 | 18009 ft | 403 kts | 228° |
| 2026-05-04 20:27 | -20.23897 | -54.27696 | 17351 ft | 400 kts | 228° |
| 2026-05-04 20:27 | -20.25787 | -54.29866 | 16695 ft | 396 kts | 228° |
| 2026-05-04 20:27 | -20.27652 | -54.32007 | 16047 ft | 393 kts | 228° |
| 2026-05-04 20:27 | -20.29509 | -54.34139 | 15423 ft | 390 kts | 228° |
| 2026-05-04 20:28 | -20.31327 | -54.36228 | 14820 ft | 388 kts | 228° |
| 2026-05-04 20:28 | -20.33158 | -54.38332 | 14218 ft | 385 kts | 228° |
| 2026-05-04 20:28 | -20.34987 | -54.40436 | 13558 ft | 385 kts | 227° |
| 2026-05-04 20:28 | -20.36799 | -54.42521 | 12923 ft | 382 kts | 228° |
| 2026-05-04 20:29 | -20.38600 | -54.44592 | 12330 ft | 379 kts | 228° |
| 2026-05-04 20:29 | -20.40376 | -54.46621 | 11745 ft | 377 kts | 226° |
| 2026-05-04 20:29 | -20.42307 | -54.48516 | 11147 ft | 376 kts | 223° |
| 2026-05-04 20:29 | -20.44249 | -54.50376 | 10557 ft | 375 kts | 223° |
| 2026-05-04 20:30 | -20.46153 | -54.52207 | 10369 ft | 361 kts | 223° |
| 2026-05-04 20:30 | -20.47990 | -54.53975 | 10243 ft | 347 kts | 223° |
| 2026-05-04 20:30 | -20.49723 | -54.55645 | 10131 ft | 334 kts | 223° |
| 2026-05-04 20:30 | -20.51416 | -54.57276 | 10019 ft | 321 kts | 223° |
| 2026-05-04 20:31 | -20.53047 | -54.58849 | 9802 ft | 312 kts | 223° |
| 2026-05-04 20:31 | -20.54648 | -54.60393 | 9414 ft | 309 kts | 223° |
| 2026-05-04 20:31 | -20.56243 | -54.61930 | 9025 ft | 307 kts | 223° |
| 2026-05-04 20:31 | -20.57826 | -54.63457 | 8625 ft | 305 kts | 223° |
| 2026-05-04 20:32 | -20.59402 | -54.64977 | 8219 ft | 304 kts | 223° |
| 2026-05-04 20:32 | -20.60965 | -54.66485 | 7898 ft | 300 kts | 223° |
| 2026-05-04 20:32 | -20.62453 | -54.67921 | 7752 ft | 284 kts | 224° |
| 2026-05-04 20:32 | -20.63874 | -54.69291 | 7586 ft | 267 kts | 223° |
| 2026-05-04 20:33 | -20.65102 | -54.70681 | 7409 ft | 249 kts | 242° |
| 2026-05-04 20:33 | -20.65630 | -54.72369 | 7040 ft | 235 kts | 270° |
| 2026-05-04 20:33 | -20.65334 | -54.74036 | 6604 ft | 225 kts | 300° |
| 2026-05-04 20:33 | -20.64432 | -54.75283 | 6473 ft | 203 kts | 316° |
| 2026-05-04 20:34 | -20.63798 | -54.76006 | 6229 ft | 200 kts | 315° |
| 2026-05-04 20:34 | -20.62854 | -54.77104 | 5765 ft | 201 kts | 315° |
| 2026-05-04 20:34 | -20.61914 | -54.78207 | 5318 ft | 201 kts | 315° |
| 2026-05-04 20:34 | -20.60821 | -54.79078 | 4787 ft | 194 kts | 342° |
| 2026-05-04 20:35 | -20.59499 | -54.79143 | 4215 ft | 191 kts | 15° |
| 2026-05-04 20:35 | -20.58399 | -54.78427 | 3840 ft | 183 kts | 41° |
| 2026-05-04 20:35 | -20.57486 | -54.77515 | 3526 ft | 175 kts | 40° |
| 2026-05-04 20:35 | -20.56544 | -54.76599 | 3478 ft | 186 kts | 39° |
| 2026-05-04 20:36 | -20.55600 | -54.75691 | 3453 ft | 174 kts | 40° |
| 2026-05-04 20:36 | -20.54768 | -54.74884 | 3477 ft | 154 kts | 39° |
| 2026-05-04 20:36 | -20.54012 | -54.74152 | 3474 ft | 142 kts | 39° |
| 2026-05-04 20:36 | -20.53281 | -54.73450 | 3495 ft | 143 kts | 39° |
| 2026-05-04 20:37 | -20.52555 | -54.72754 | 3395 ft | 141 kts | 39° |
| 2026-05-04 20:37 | -20.51825 | -54.72054 | 3176 ft | 138 kts | 39° |
| 2026-05-04 20:37 | -20.51124 | -54.71377 | 2915 ft | 138 kts | 39° |
| 2026-05-04 20:37 | -20.50412 | -54.70696 | 2674 ft | 135 kts | 40° |
| 2026-05-04 20:38 | -20.49718 | -54.70020 | 2390 ft | 139 kts | 39° |
| 2026-05-04 20:38 | -20.49003 | -54.69327 | 2118 ft | 139 kts | 39° |
| 2026-05-04 20:38 | -20.48310 | -54.68649 | 1948 ft | 134 kts | 40° |
| 2026-05-04 20:38 | -20.47612 | -54.67981 | 1837 ft | 129 kts | 38° |
| 2026-05-04 20:39 | -20.47055 | -54.67461 | 1827 ft | 68 kts | 41° |
| 2026-05-04 20:39 | -20.46779 | -54.67192 | 1833 ft | 49 kts | 41° |
| 2026-05-04 20:39 | -20.46541 | -54.66962 | 1836 ft | 44 kts | 43° |
| 2026-05-04 20:39 | -20.46324 | -54.66757 | 1839 ft | 37 kts | 43° |
| 2026-05-04 20:40 | -20.46189 | -54.66624 | 1841 ft | 21 kts | 42° |
| 2026-05-04 20:40 | -20.46077 | -54.66629 | 1843 ft | 17 kts | 340° |
| 2026-05-04 20:40 | -20.45963 | -54.66671 | 1843 ft | 17 kts | 340° |
| 2026-05-04 20:40 | -20.45850 | -54.66718 | 1843 ft | 17 kts | 338° |
| 2026-05-04 20:41 | -20.45833 | -54.66798 | 1843 ft | 10 kts | 261° |
| 2026-05-04 20:41 | -20.45811 | -54.66819 | 1843 ft | 4 kts | 0° |
| 2026-05-04 20:41 | -20.45783 | -54.66822 | 1843 ft | 0 kts | 348° |